Time;durP1;ratioP1;P1;durP2;ratioP2;P2;SDS_P1;SDS_P2;PMS_P1;PMS_P2;Temp;Humidity;BMP_temperature;BMP_pressure;BME280_temperature;BME280_humidity;BME280_pressure;Samples;Min_cycle;Max_cycle;Signal;HPM_P1;HPM_P2
2021/05/28 00:01:51;;;;;;;13.68;8.10;;;8.40;99.90;;;;;;4992494;28;20218;-84
2021/05/28 00:04:18;;;;;;;17.30;8.10;;;8.40;99.90;;;;;;4980487;28;20186;-84
2021/05/28 00:06:45;;;;;;;12.57;7.68;;;8.50;99.90;;;;;;4993760;28;20186;-84
2021/05/28 00:09:11;;;;;;;10.52;7.00;;;8.60;99.90;;;;;;4974911;28;20191;-84
2021/05/28 00:11:38;;;;;;;9.02;6.75;;;8.60;99.90;;;;;;4990196;28;20190;-84
2021/05/28 00:14:04;;;;;;;13.02;7.53;;;8.60;99.90;;;;;;4976762;28;20191;-85
2021/05/28 00:16:31;;;;;;;10.43;7.40;;;8.70;99.90;;;;;;4977811;28;20218;-85
2021/05/28 00:18:57;;;;;;;13.80;7.63;;;8.70;99.90;;;;;;4999330;28;20193;-84
2021/05/28 00:21:24;;;;;;;15.13;8.05;;;8.70;99.90;;;;;;4984573;28;20195;-85
2021/05/28 00:23:51;;;;;;;8.45;6.47;;;8.80;99.90;;;;;;4977435;28;20202;-84
2021/05/28 00:26:17;;;;;;;11.70;8.50;;;9.50;99.90;;;;;;4994434;28;20186;-84
2021/05/28 00:28:48;;;;;;;13.32;8.15;;;8.80;99.90;;;;;;4992156;28;20285;-84
2021/05/28 00:31:15;;;;;;;12.15;7.68;;;8.80;99.90;;;;;;4975086;28;20201;-84
2021/05/28 00:33:41;;;;;;;17.55;8.05;;;8.90;99.90;;;;;;4988190;28;20192;-84
2021/05/28 00:36:08;;;;;;;20.45;7.95;;;9.00;99.90;;;;;;4975080;28;20210;-84
2021/05/28 00:38:34;;;;;;;12.13;7.90;;;8.90;99.90;;;;;;4974940;28;20190;-85
2021/05/28 00:41:01;;;;;;;15.57;8.55;;;9.00;99.90;;;;;;4993098;28;20197;-85
2021/05/28 00:43:28;;;;;;;10.95;7.97;;;9.00;99.90;;;;;;4983237;28;20582;-84
2021/05/28 00:45:57;;;;;;;15.02;8.43;;;9.00;99.90;;;;;;4976035;28;20190;-85
2021/05/28 00:48:23;;;;;;;13.68;9.70;;;9.10;99.90;;;;;;4984369;28;20210;-85
2021/05/28 00:50:49;;;;;;;15.20;7.65;;;9.00;99.90;;;;;;4978509;28;20242;-85
2021/05/28 00:53:16;;;;;;;13.32;7.88;;;9.00;99.90;;;;;;4975423;28;20191;-85
2021/05/28 00:55:43;;;;;;;10.38;7.20;;;9.00;99.90;;;;;;4974489;28;20213;-85
2021/05/28 00:58:11;;;;;;;20.17;8.35;;;9.10;99.90;;;;;;4980669;28;20610;-85
2021/05/28 01:00:37;;;;;;;9.63;7.80;;;9.00;99.90;;;;;;4981136;28;20613;-85
2021/05/28 01:03:04;;;;;;;12.00;8.30;;;9.10;99.90;;;;;;4985071;28;20190;-84
2021/05/28 01:05:32;;;;;;;10.57;7.45;;;9.10;99.90;;;;;;4990192;28;20276;-84
2021/05/28 01:07:58;;;;;;;18.13;8.40;;;9.20;99.90;;;;;;4983774;28;20194;-84
2021/05/28 01:10:25;;;;;;;19.15;10.20;;;10.10;99.90;;;;;;4984222;28;20186;-84
2021/05/28 01:12:51;;;;;;;18.70;9.85;;;9.10;99.90;;;;;;4991642;28;20190;-84
2021/05/28 01:15:18;;;;;;;12.75;9.68;;;9.10;99.90;;;;;;4993449;28;20281;-84
2021/05/28 01:17:45;;;;;;;22.58;9.75;;;9.10;99.90;;;;;;4987014;28;20706;-84
2021/05/28 01:20:12;;;;;;;9.52;8.25;;;9.10;99.90;;;;;;4974630;28;20195;-84
2021/05/28 01:22:40;;;;;;;14.32;8.40;;;9.10;99.90;;;;;;4975393;28;20191;-84
2021/05/28 01:25:07;;;;;;;13.30;7.97;;;9.20;99.90;;;;;;4974290;28;20190;-84
2021/05/28 01:27:34;;;;;;;13.63;9.13;;;9.10;99.90;;;;;;4978046;28;20188;-84
2021/05/28 01:30:01;;;;;;;15.55;9.43;;;9.10;99.90;;;;;;4994332;28;20513;-84
2021/05/28 01:32:27;;;;;;;11.73;9.05;;;9.00;99.90;;;;;;4980254;28;20275;-84
2021/05/28 01:34:53;;;;;;;14.27;12.77;;;9.00;99.90;;;;;;4990803;28;20668;-84
2021/05/28 01:37:20;;;;;;;17.35;9.60;;;8.90;99.90;;;;;;4987268;28;20213;-84
2021/05/28 01:39:49;;;;;;;13.07;9.55;;;8.90;99.90;;;;;;4999260;28;20634;-84
2021/05/28 01:42:15;;;;;;;14.30;10.20;;;8.90;99.90;;;;;;4987773;28;20244;-84
2021/05/28 01:44:42;;;;;;;11.77;9.90;;;8.90;99.90;;;;;;4998208;28;20196;-84
2021/05/28 01:47:09;;;;;;;13.93;10.95;;;8.90;99.90;;;;;;4993506;28;20195;-84
2021/05/28 01:49:39;;;;;;;17.48;12.63;;;8.90;99.90;;;;;;4978266;28;20187;-84
2021/05/28 01:52:06;;;;;;;13.32;11.25;;;8.90;99.90;;;;;;4986293;28;20198;-84
2021/05/28 01:54:34;;;;;;;19.67;9.68;;;8.90;99.90;;;;;;4977996;28;20446;-86
2021/05/28 01:57:01;;;;;;;14.35;10.45;;;8.90;99.90;;;;;;4982760;28;20609;-84
2021/05/28 01:59:28;;;;;;;14.38;9.38;;;8.90;99.90;;;;;;4997624;28;20545;-84
2021/05/28 02:01:55;;;;;;;19.58;10.77;;;8.80;99.90;;;;;;5000968;28;20194;-84
2021/05/28 02:04:22;;;;;;;28.33;10.90;;;8.70;99.90;;;;;;4997756;28;20190;-84
2021/05/28 02:06:49;;;;;;;51.38;12.63;;;8.60;99.90;;;;;;4991163;28;20253;-84
2021/05/28 02:09:15;;;;;;;14.40;10.40;;;8.40;99.90;;;;;;4996939;28;20194;-86
2021/05/28 02:11:41;;;;;;;13.20;10.63;;;8.30;99.90;;;;;;4996155;28;20194;-84
2021/05/28 02:14:08;;;;;;;16.30;10.52;;;8.20;99.90;;;;;;4996801;28;20201;-85
2021/05/28 02:16:35;;;;;;;11.77;9.23;;;8.40;99.90;;;;;;4991080;28;20210;-83
2021/05/28 02:19:02;;;;;;;12.20;10.38;;;8.00;99.90;;;;;;4995168;28;20268;-83
2021/05/28 02:21:29;;;;;;;12.07;8.30;;;7.90;99.90;;;;;;4985379;28;20655;-84
2021/05/28 02:23:55;;;;;;;13.85;9.38;;;7.90;99.90;;;;;;4996278;28;20205;-84
2021/05/28 02:26:22;;;;;;;10.68;9.68;;;7.80;99.90;;;;;;4983081;28;20190;-83
2021/05/28 02:28:48;;;;;;;14.75;11.25;;;7.90;99.90;;;;;;4977106;28;20285;-83
2021/05/28 02:31:15;;;;;;;15.68;11.73;;;7.90;99.90;;;;;;4978658;28;20673;-83
2021/05/28 02:33:42;;;;;;;14.88;10.57;;;7.90;99.90;;;;;;4977659;28;20195;-83
2021/05/28 02:36:09;;;;;;;11.95;10.75;;;7.90;99.90;;;;;;4978763;28;20211;-84
2021/05/28 02:38:36;;;;;;;16.63;11.77;;;7.90;99.90;;;;;;4977067;28;20282;-84
2021/05/28 02:41:03;;;;;;;13.60;11.07;;;8.10;99.90;;;;;;4988889;28;20186;-86
2021/05/28 02:43:29;;;;;;;17.10;11.90;;;8.10;99.90;;;;;;4993199;28;20232;-84
2021/05/28 02:45:56;;;;;;;15.20;10.20;;;8.00;99.90;;;;;;4994873;28;20662;-84
2021/05/28 02:48:23;;;;;;;16.13;10.45;;;8.00;99.90;;;;;;4996306;28;20271;-84
2021/05/28 02:50:50;;;;;;;17.17;11.90;;;7.90;99.90;;;;;;4983701;28;20187;-84
2021/05/28 02:53:17;;;;;;;14.98;11.93;;;7.90;99.90;;;;;;4976817;28;20277;-84
2021/05/28 02:55:43;;;;;;;15.65;10.98;;;8.00;99.90;;;;;;4987835;28;20191;-84
2021/05/28 02:58:10;;;;;;;21.77;11.65;;;7.90;99.90;;;;;;4981283;28;20199;-84
2021/05/28 03:00:36;;;;;;;17.17;11.20;;;7.80;99.90;;;;;;4988243;28;20676;-84
2021/05/28 03:03:02;;;;;;;13.80;10.85;;;7.60;99.90;;;;;;5000556;28;20248;-83
2021/05/28 03:05:30;;;;;;;14.65;12.60;;;7.70;99.90;;;;;;5006226;28;20188;-83
2021/05/28 03:07:56;;;;;;;16.10;11.77;;;7.40;99.90;;;;;;5004797;28;20197;-83
2021/05/28 03:10:23;;;;;;;15.65;12.52;;;7.40;99.90;;;;;;5000669;28;20647;-83
2021/05/28 03:12:49;;;;;;;24.33;13.45;;;7.40;99.90;;;;;;4996365;28;20260;-84
2021/05/28 03:15:15;;;;;;;18.10;13.13;;;7.40;99.90;;;;;;4988310;28;20197;-84
2021/05/28 03:17:43;;;;;;;21.98;12.75;;;7.50;99.90;;;;;;4995743;28;20218;-84
2021/05/28 03:20:17;;;;;;;15.50;12.02;;;7.50;99.90;;;;;;4988305;28;20273;-84
2021/05/28 03:22:45;;;;;;;17.08;13.52;;;7.50;99.90;;;;;;4995888;28;20535;-84
2021/05/28 03:25:13;;;;;;;27.48;13.23;;;7.40;99.90;;;;;;4991159;28;20240;-84
2021/05/28 03:27:39;;;;;;;17.48;12.75;;;7.30;99.90;;;;;;4976473;28;20191;-84
2021/05/28 03:30:08;;;;;;;14.07;12.18;;;7.30;99.90;;;;;;4983986;28;20183;-84
2021/05/28 03:32:35;;;;;;;18.83;13.18;;;7.30;99.90;;;;;;4987892;28;20634;-84
2021/05/28 03:35:02;;;;;;;15.38;13.75;;;7.20;99.90;;;;;;4982992;28;20191;-84
2021/05/28 03:37:28;;;;;;;19.67;15.30;;;7.20;99.90;;;;;;4979223;28;20222;-84
2021/05/28 03:39:55;;;;;;;18.17;15.20;;;7.20;99.90;;;;;;4990932;28;20187;-84
2021/05/28 03:42:22;;;;;;;16.67;13.25;;;7.10;99.90;;;;;;4981196;28;20244;-83
2021/05/28 03:44:48;;;;;;;14.35;12.85;;;7.10;99.90;;;;;;4992162;28;20190;-87
2021/05/28 03:47:15;;;;;;;17.08;13.50;;;7.00;99.90;;;;;;4980604;28;20202;-87
2021/05/28 03:49:42;;;;;;;17.40;14.10;;;7.00;99.90;;;;;;4998004;28;20194;-87
2021/05/28 03:52:08;;;;;;;18.92;13.48;;;6.90;99.90;;;;;;4976810;28;20197;-87
2021/05/28 03:54:35;;;;;;;20.38;13.32;;;6.90;99.90;;;;;;4976753;28;20198;-87
2021/05/28 03:57:03;;;;;;;22.67;13.25;;;6.80;99.90;;;;;;4982850;28;20214;-87
2021/05/28 03:59:29;;;;;;;26.00;14.60;;;6.80;99.90;;;;;;4993672;28;20519;-87
2021/05/28 04:01:56;;;;;;;19.60;15.07;;;6.80;99.90;;;;;;4995535;28;20202;-86
2021/05/28 04:04:22;;;;;;;18.15;14.40;;;7.00;99.90;;;;;;4994219;28;20277;-87
2021/05/28 04:06:48;;;;;;;20.73;15.75;;;7.00;99.90;;;;;;4995361;28;20574;-86
2021/05/28 04:09:15;;;;;;;21.60;15.27;;;7.00;99.90;;;;;;4984663;28;20233;-86
2021/05/28 04:11:41;;;;;;;35.03;18.20;;;7.10;99.90;;;;;;4993609;28;20288;-87
2021/05/28 04:14:08;;;;;;;45.30;17.80;;;7.10;99.90;;;;;;4981831;28;20374;-86
2021/05/28 04:16:35;;;;;;;20.80;16.08;;;7.20;99.90;;;;;;4985591;28;20222;-87
2021/05/28 04:19:01;;;;;;;28.02;20.80;;;7.30;99.90;;;;;;4989351;28;20187;-86
2021/05/28 04:21:27;;;;;;;22.35;18.15;;;7.30;99.90;;;;;;4976344;28;20183;-86
2021/05/28 04:23:55;;;;;;;25.80;19.48;;;7.30;99.90;;;;;;4975568;28;20602;-86
2021/05/28 04:26:21;;;;;;;22.52;18.60;;;7.60;99.90;;;;;;4980409;28;20182;-86
2021/05/28 04:28:47;;;;;;;29.75;19.33;;;7.80;99.90;;;;;;4995122;28;20269;-87
2021/05/28 04:31:15;;;;;;;28.75;22.33;;;7.60;99.90;;;;;;4980782;28;20608;-86
2021/05/28 04:33:41;;;;;;;34.47;23.65;;;7.70;99.90;;;;;;4988332;28;20195;-86
2021/05/28 04:36:07;;;;;;;29.52;20.33;;;7.70;99.90;;;;;;4983979;28;20249;-87
2021/05/28 04:38:36;;;;;;;29.95;20.10;;;7.70;99.90;;;;;;4989926;28;20187;-87
2021/05/28 04:41:02;;;;;;;29.60;21.05;;;7.70;99.90;;;;;;4976030;28;20650;-87
2021/05/28 04:43:29;;;;;;;27.25;22.60;;;7.70;99.90;;;;;;4978631;28;20214;-87
2021/05/28 04:45:56;;;;;;;33.30;22.98;;;7.90;99.90;;;;;;4988692;28;20198;-87
2021/05/28 04:48:23;;;;;;;30.17;23.38;;;8.60;99.90;;;;;;4977924;28;20190;-89
2021/05/28 04:50:50;;;;;;;35.00;25.10;;;8.10;99.90;;;;;;4993446;28;20182;-87
2021/05/28 04:53:16;;;;;;;33.80;25.30;;;8.40;99.90;;;;;;4994547;28;20211;-87
2021/05/28 04:55:43;;;;;;;40.63;30.85;;;8.40;99.90;;;;;;4980959;28;20194;-90
2021/05/28 04:58:09;;;;;;;53.28;28.88;;;8.60;99.90;;;;;;4985911;28;20193;-88
2021/05/28 05:00:36;;;;;;;52.30;29.55;;;8.60;99.90;;;;;;4980643;28;20186;-88
2021/05/28 05:03:03;;;;;;;55.03;32.20;;;8.70;99.90;;;;;;4984001;28;20222;-89
2021/05/28 05:05:34;;;;;;;57.78;29.77;;;8.70;99.90;;;;;;4995147;28;20194;-91
2021/05/28 05:08:03;;;;;;;60.63;34.25;;;8.90;99.90;;;;;;4994497;28;20597;-90
2021/05/28 05:10:30;;;;;;;81.07;42.70;;;8.80;99.90;;;;;;4983440;28;20191;-89
2021/05/28 05:12:56;;;;;;;75.60;38.05;;;8.80;99.90;;;;;;4986080;28;20635;-90
2021/05/28 05:15:22;;;;;;;75.60;41.97;;;8.80;99.90;;;;;;4981584;28;20190;-90
2021/05/28 05:17:49;;;;;;;84.03;44.83;;;9.30;99.90;;;;;;4985855;28;20222;-90
2021/05/28 05:20:15;;;;;;;66.57;37.55;;;8.80;99.90;;;;;;4997258;28;20650;-90
2021/05/28 05:22:43;;;;;;;80.78;40.63;;;8.80;99.90;;;;;;5003214;28;20194;-89
2021/05/28 05:25:10;;;;;;;74.65;41.83;;;9.60;99.90;;;;;;4990669;28;20557;-88
2021/05/28 05:27:36;;;;;;;85.72;42.50;;;8.90;99.90;;;;;;4987150;28;20532;-90
2021/05/28 05:30:04;;;;;;;100.10;47.80;;;9.10;99.90;;;;;;4985529;28;20196;-90
2021/05/28 05:32:30;;;;;;;118.07;45.80;;;9.00;99.90;;;;;;4986554;28;20189;-88
2021/05/28 05:34:57;;;;;;;91.28;48.05;;;8.90;99.90;;;;;;4997878;28;20320;-88
2021/05/28 05:37:24;;;;;;;80.47;44.58;;;8.90;99.90;;;;;;4989149;28;20673;-89
2021/05/28 05:39:52;;;;;;;79.15;43.92;;;8.90;99.90;;;;;;4991132;28;20190;-89
2021/05/28 05:42:18;;;;;;;77.15;42.72;;;10.00;99.90;;;;;;4987213;28;20188;-89
2021/05/28 05:47:25;;;;;;;85.97;43.20;;;9.10;99.90;;;;;;4986029;28;20277;-91
2021/05/28 05:49:52;;;;;;;129.07;52.05;;;9.30;99.90;;;;;;4989103;28;20194;-92
2021/05/28 05:52:18;;;;;;;78.13;43.83;;;9.30;99.90;;;;;;4995441;28;20186;-91
2021/05/28 05:54:44;;;;;;;71.60;39.85;;;9.40;99.90;;;;;;4985799;28;20205;-91
2021/05/28 05:57:12;;;;;;;110.97;47.92;;;9.40;99.90;;;;;;4974954;28;20297;-91
2021/05/28 05:59:38;;;;;;;85.13;40.72;;;9.40;99.90;;;;;;4977135;28;20286;-91
2021/05/28 06:02:05;;;;;;;77.15;37.92;;;9.50;99.90;;;;;;4977701;28;20635;-91
2021/05/28 06:04:33;;;;;;;60.63;35.08;;;9.70;99.90;;;;;;4986952;28;20201;-91
2021/05/28 06:06:59;;;;;;;61.30;33.45;;;9.80;99.90;;;;;;5001671;28;20198;-92
2021/05/28 06:09:26;;;;;;;52.63;30.42;;;9.90;99.90;;;;;;4983344;28;20191;-89
2021/05/28 06:11:54;;;;;;;53.22;30.95;;;9.90;99.90;;;;;;4985396;28;20218;-89
2021/05/28 06:14:21;;;;;;;63.47;32.28;;;10.30;99.90;;;;;;4993393;28;20232;-89
2021/05/28 06:16:48;;;;;;;51.42;30.80;;;10.10;99.90;;;;;;4979591;28;20690;-89
2021/05/28 06:19:14;;;;;;;52.33;34.70;;;10.00;99.90;;;;;;4992635;28;20258;-89
2021/05/28 06:21:41;;;;;;;50.50;31.48;;;10.00;99.90;;;;;;4999542;28;20193;-89
2021/05/28 06:24:08;;;;;;;44.70;30.30;;;10.10;99.90;;;;;;4996383;28;20228;-89
2021/05/28 06:26:35;;;;;;;43.40;27.45;;;10.00;99.90;;;;;;4979576;28;20202;-89
2021/05/28 06:29:02;;;;;;;49.10;31.58;;;9.90;99.90;;;;;;4989101;28;20685;-88
2021/05/28 06:31:30;;;;;;;44.42;28.02;;;11.20;99.90;;;;;;4999871;28;20198;-89
2021/05/28 06:33:56;;;;;;;43.38;30.88;;;11.60;99.90;;;;;;4993056;28;20273;-88
2021/05/28 06:36:23;;;;;;;43.83;24.38;;;10.20;99.90;;;;;;4988629;28;20535;-89
2021/05/28 06:38:49;;;;;;;45.40;27.08;;;10.20;99.90;;;;;;4990122;28;20281;-89
2021/05/28 06:41:16;;;;;;;42.78;26.73;;;10.10;99.90;;;;;;5006683;28;20229;-88
2021/05/28 06:43:42;;;;;;;46.53;28.10;;;10.20;99.90;;;;;;5006172;28;20225;-88
2021/05/28 06:46:08;;;;;;;36.50;26.33;;;10.30;99.90;;;;;;4995648;28;20178;-89
2021/05/28 06:48:36;;;;;;;43.70;25.80;;;10.40;99.90;;;;;;5003040;28;20297;-91
2021/05/28 06:51:02;;;;;;;40.40;26.55;;;10.50;99.90;;;;;;4999908;28;20222;-93
2021/05/28 06:53:30;;;;;;;29.15;22.08;;;10.80;99.90;;;;;;5006263;28;20194;-94
2021/05/28 06:55:56;;;;;;;34.30;22.85;;;10.60;99.90;;;;;;5013680;28;20280;-94
2021/05/28 06:58:23;;;;;;;32.30;24.27;;;10.60;99.90;;;;;;4982206;28;20200;-91
2021/05/28 07:00:49;;;;;;;36.03;22.15;;;10.70;99.90;;;;;;4995524;28;20209;-91
2021/05/28 07:03:16;;;;;;;29.73;20.10;;;10.70;99.90;;;;;;4997856;28;20286;-90
2021/05/28 07:05:43;;;;;;;22.60;17.30;;;10.70;99.90;;;;;;4997333;28;20254;-90
2021/05/28 07:08:10;;;;;;;35.08;24.80;;;10.70;99.90;;;;;;5013001;28;20193;-89
2021/05/28 07:10:36;;;;;;;44.88;26.95;;;10.90;99.90;;;;;;5007610;28;20256;-92
2021/05/28 07:13:03;;;;;;;46.47;28.73;;;11.60;99.90;;;;;;4991225;28;20201;-90
2021/05/28 07:15:29;;;;;;;42.15;25.65;;;11.20;99.90;;;;;;4995998;28;20232;-91
2021/05/28 07:17:55;;;;;;;33.20;25.27;;;12.50;99.90;;;;;;4996917;28;20333;-90
2021/05/28 07:20:22;;;;;;;41.55;26.42;;;11.20;99.90;;;;;;4984720;28;20582;-89
2021/05/28 07:22:50;;;;;;;46.58;25.65;;;11.30;99.90;;;;;;4988983;28;20194;-88
2021/05/28 07:25:17;;;;;;;40.25;26.90;;;11.40;99.90;;;;;;4990666;28;20245;-88
2021/05/28 07:27:44;;;;;;;42.40;27.02;;;11.50;99.90;;;;;;4991352;28;20662;-89
2021/05/28 07:30:12;;;;;;;38.70;26.05;;;11.60;99.90;;;;;;4996006;28;20208;-88
2021/05/28 07:32:39;;;;;;;41.65;27.50;;;11.50;99.90;;;;;;4985703;28;20187;-88
2021/05/28 07:35:07;;;;;;;43.78;27.35;;;11.10;99.90;;;;;;4976276;28;20203;-88
2021/05/28 07:37:34;;;;;;;43.58;28.08;;;11.20;99.90;;;;;;4982347;28;20206;-88
2021/05/28 07:40:01;;;;;;;47.20;29.70;;;11.30;99.90;;;;;;4992651;28;20194;-88
2021/05/28 07:42:27;;;;;;;41.50;25.95;;;11.50;99.90;;;;;;4992790;28;20201;-88
2021/05/28 07:44:54;;;;;;;44.88;26.33;;;12.40;99.90;;;;;;4994480;28;20643;-89
2021/05/28 07:47:20;;;;;;;44.80;26.98;;;11.60;99.90;;;;;;4995948;28;20197;-89
2021/05/28 07:49:46;;;;;;;47.10;28.13;;;11.90;99.90;;;;;;4992882;28;20617;-89
2021/05/28 07:52:13;;;;;;;39.75;28.48;;;12.40;99.90;;;;;;4997237;28;20334;-88
2021/05/28 07:54:39;;;;;;;39.33;25.13;;;13.00;99.90;;;;;;4995105;28;20473;-90
2021/05/28 07:57:08;;;;;;;37.80;25.05;;;13.10;99.90;;;;;;4995807;28;20309;-89
2021/05/28 07:59:35;;;;;;;38.80;25.00;;;12.30;99.90;;;;;;4994723;28;20229;-89
2021/05/28 08:02:01;;;;;;;41.05;26.23;;;12.20;99.90;;;;;;4995133;28;20197;-89
2021/05/28 08:04:27;;;;;;;44.67;26.70;;;12.30;99.90;;;;;;4993791;28;20630;-89
2021/05/28 08:06:54;;;;;;;50.95;30.83;;;12.40;99.90;;;;;;4995536;28;20189;-89
2021/05/28 08:09:20;;;;;;;44.40;27.65;;;12.60;99.90;;;;;;4982498;28;20612;-89
2021/05/28 08:11:46;;;;;;;39.28;27.88;;;12.50;99.90;;;;;;4976060;28;20199;-89
2021/05/28 08:14:14;;;;;;;45.80;29.00;;;13.70;99.90;;;;;;4988047;28;20182;-89
2021/05/28 08:16:40;;;;;;;46.88;28.25;;;13.30;99.90;;;;;;4983743;28;20254;-90
2021/05/28 08:19:06;;;;;;;42.90;26.58;;;12.80;99.90;;;;;;4987245;28;20201;-91
2021/05/28 08:21:33;;;;;;;36.60;26.10;;;13.10;99.90;;;;;;5005715;28;20216;-90
2021/05/28 08:23:59;;;;;;;36.15;26.58;;;13.30;99.90;;;;;;4993661;28;20202;-88
2021/05/28 08:26:25;;;;;;;59.72;31.83;;;13.50;99.90;;;;;;4979877;28;21691;-89
2021/05/28 08:28:52;;;;;;;41.30;26.02;;;13.60;99.90;;;;;;4988178;28;20194;-90
2021/05/28 08:31:20;;;;;;;45.00;26.38;;;13.80;99.90;;;;;;4980645;28;20188;-89
2021/05/28 08:33:46;;;;;;;43.95;26.67;;;13.90;99.90;;;;;;4991239;28;20198;-89
2021/05/28 08:36:13;;;;;;;46.17;29.25;;;13.80;99.90;;;;;;4977759;28;20194;-89
2021/05/28 08:38:39;;;;;;;43.17;28.52;;;14.00;99.90;;;;;;4997662;28;20200;-90
2021/05/28 08:41:06;;;;;;;46.08;27.42;;;14.40;99.90;;;;;;4980290;28;20279;-89
2021/05/28 08:43:32;;;;;;;37.78;28.13;;;14.00;99.90;;;;;;4975308;28;20750;-89
2021/05/28 08:46:01;;;;;;;38.88;26.65;;;13.70;99.90;;;;;;4985072;28;20188;-90
2021/05/28 08:48:29;;;;;;;42.28;26.80;;;13.80;99.90;;;;;;4997116;28;20256;-88
2021/05/28 08:50:55;;;;;;;43.63;28.83;;;13.30;99.90;;;;;;4990892;28;20198;-90
2021/05/28 08:53:24;;;;;;;40.92;24.48;;;13.10;99.90;;;;;;4983027;28;20255;-88
2021/05/28 08:55:50;;;;;;;43.45;27.50;;;13.00;99.90;;;;;;4993224;28;20209;-89
2021/05/28 08:58:19;;;;;;;38.72;25.88;;;12.80;99.90;;;;;;4997652;28;20249;-89
2021/05/28 09:00:46;;;;;;;42.47;30.23;;;12.80;99.90;;;;;;5008250;28;20182;-89
2021/05/28 09:03:21;;;;;;;40.67;27.38;;;12.60;99.90;;;;;;4983785;28;20192;-88
2021/05/28 09:05:49;;;;;;;44.42;27.13;;;12.60;99.90;;;;;;4996487;28;20196;-89
2021/05/28 09:08:27;;;;;;;47.60;29.05;;;12.60;99.90;;;;;;4994607;28;20285;-89
2021/05/28 09:11:02;;;;;;;42.55;27.00;;;12.60;99.90;;;;;;4979933;28;20263;-89
2021/05/28 09:13:28;;;;;;;34.33;23.17;;;12.70;99.90;;;;;;5000255;28;20273;-88
2021/05/28 09:16:10;;;;;;;42.35;25.95;;;12.70;99.90;;;;;;4997532;28;20550;-88
2021/05/28 09:18:48;;;;;;;33.10;20.17;;;12.70;99.90;;;;;;4993266;28;20233;-87
2021/05/28 09:21:23;;;;;;;39.50;22.00;;;14.00;99.90;;;;;;4977646;28;20197;-88
2021/05/28 09:23:50;;;;;;;38.13;23.33;;;12.70;99.90;;;;;;4995930;28;20200;-91
2021/05/28 09:26:16;;;;;;;23.10;17.17;;;12.90;99.90;;;;;;4995050;28;20190;-90
2021/05/28 09:28:44;;;;;;;30.42;16.13;;;13.10;99.90;;;;;;4983444;28;20252;-88
2021/05/28 09:31:14;;;;;;;17.23;13.55;;;13.30;99.90;;;;;;4976176;28;20194;-88
2021/05/28 09:33:42;;;;;;;27.98;18.42;;;13.30;99.90;;;;;;4980632;28;20531;-91
2021/05/28 09:36:18;;;;;;;26.40;16.38;;;13.30;99.90;;;;;;4995098;28;20204;-89
2021/05/28 09:38:56;;;;;;;23.17;16.17;;;13.40;99.90;;;;;;4991692;28;20194;-90
2021/05/28 09:41:51;;;;;;;27.77;15.93;;;13.60;99.90;;;;;;4981230;28;20186;-89
2021/05/28 09:44:20;;;;;;;26.15;17.33;;;13.70;99.90;;;;;;4942595;28;20222;-88
2021/05/28 09:47:02;;;;;;;27.02;18.30;;;13.70;99.90;;;;;;4998356;28;20197;-87
2021/05/28 09:49:29;;;;;;;19.13;14.07;;;13.80;99.90;;;;;;4996712;28;20187;-87
2021/05/28 09:52:05;;;;;;;17.63;11.73;;;13.80;99.90;;;;;;4989496;28;20190;-88
2021/05/28 09:54:32;;;;;;;15.77;11.60;;;13.90;99.90;;;;;;4998096;28;20219;-88
2021/05/28 09:56:58;;;;;;;18.63;10.75;;;14.10;99.90;;;;;;4995516;28;20224;-88
2021/05/28 09:59:25;;;;;;;21.38;12.73;;;15.00;99.90;;;;;;4985800;28;20195;-88
2021/05/28 10:01:56;;;;;;;19.08;14.70;;;14.00;99.90;;;;;;4984348;28;20199;-88
2021/05/28 10:04:22;;;;;;;19.33;11.70;;;14.30;99.90;;;;;;4998689;28;20527;-89
2021/05/28 10:06:49;;;;;;;20.17;13.25;;;14.00;99.90;;;;;;4992217;28;20284;-88
2021/05/28 10:09:17;;;;;;;15.10;10.52;;;14.60;99.90;;;;;;4982153;28;20182;-89
2021/05/28 10:11:44;;;;;;;16.00;11.10;;;14.80;99.90;;;;;;4989744;28;20190;-89
2021/05/28 10:14:11;;;;;;;18.35;11.82;;;14.90;99.90;;;;;;4990661;28;20195;-88
2021/05/28 10:16:39;;;;;;;16.05;11.85;;;15.00;99.90;;;;;;4995964;28;20207;-89
2021/05/28 10:19:06;;;;;;;18.95;14.48;;;14.90;99.90;;;;;;4995928;28;20283;-89
2021/05/28 10:21:32;;;;;;;21.35;12.50;;;14.70;99.90;;;;;;4996221;28;20664;-89
2021/05/28 10:23:59;;;;;;;19.15;13.15;;;15.30;99.90;;;;;;4996599;28;20534;-89
2021/05/28 10:26:27;;;;;;;16.15;11.02;;;15.50;99.90;;;;;;4996718;28;20201;-89
2021/05/28 10:28:54;;;;;;;16.08;11.07;;;15.70;99.90;;;;;;4978839;28;20198;-86
2021/05/28 10:31:40;;;;;;;13.52;9.55;;;15.70;99.90;;;;;;4993206;28;20182;-87
2021/05/28 10:34:07;;;;;;;14.82;10.27;;;15.70;99.90;;;;;;4985247;28;20185;-87
2021/05/28 10:36:41;;;;;;;20.33;11.15;;;15.90;99.90;;;;;;4977034;28;20316;-87
2021/05/28 10:39:08;;;;;;;14.77;11.73;;;16.00;99.90;;;;;;4976915;28;20202;-88
2021/05/28 10:41:43;;;;;;;16.75;9.85;;;16.30;99.90;;;;;;4980972;28;20189;-88
2021/05/28 10:44:11;;;;;;;13.38;8.90;;;16.60;99.90;;;;;;4976869;28;20218;-88
2021/05/28 10:46:50;;;;;;;12.13;8.82;;;16.70;99.90;;;;;;4980250;28;20273;-86
2021/05/28 10:49:16;;;;;;;12.45;8.70;;;17.00;99.90;;;;;;4996641;28;20193;-88
2021/05/28 10:52:08;;;;;;;13.63;8.70;;;17.40;99.90;;;;;;4992488;28;20282;-87
2021/05/28 10:54:38;;;;;;;16.17;11.57;;;17.80;99.90;;;;;;4976836;28;20195;-89
2021/05/28 10:57:20;;;;;;;15.02;11.18;;;18.00;99.90;;;;;;4989249;28;20243;-88
2021/05/28 10:59:52;;;;;;;14.05;10.10;;;18.10;99.90;;;;;;4995809;28;20190;-87
2021/05/28 11:02:48;;;;;;;15.73;11.07;;;18.20;99.90;;;;;;4985689;28;20194;-88
2021/05/28 11:05:16;;;;;;;15.40;10.18;;;18.40;99.90;;;;;;4998364;28;20700;-87
2021/05/28 11:07:45;;;;;;;15.05;9.77;;;18.50;99.90;;;;;;4993793;28;20218;-88
2021/05/28 11:10:23;;;;;;;16.08;11.77;;;18.70;99.90;;;;;;4979020;28;20183;-88
2021/05/28 11:12:50;;;;;;;14.23;10.15;;;18.90;99.90;;;;;;4978223;28;20210;-88
2021/05/28 11:15:22;;;;;;;13.32;9.82;;;19.00;99.90;;;;;;4986275;28;20194;-88
2021/05/28 11:17:58;;;;;;;11.80;9.68;;;19.00;99.90;;;;;;4995435;28;20232;-89
2021/05/28 11:20:32;;;;;;;12.98;7.97;;;19.10;99.90;;;;;;4993834;28;20578;-90
2021/05/28 11:23:00;;;;;;;12.30;9.60;;;19.00;99.90;;;;;;4984089;28;20621;-90
2021/05/28 11:25:31;;;;;;;12.57;9.15;;;19.10;99.90;;;;;;4996047;28;20191;-90
2021/05/28 11:28:07;;;;;;;9.68;6.78;;;19.20;99.90;;;;;;5003536;28;20201;-87
2021/05/28 11:30:47;;;;;;;11.95;8.43;;;19.40;99.90;;;;;;4986719;28;20233;-87
2021/05/28 11:33:43;;;;;;;11.57;7.60;;;19.70;99.90;;;;;;4977815;28;20183;-87
2021/05/28 11:36:42;;;;;;;10.63;7.80;;;20.20;99.90;;;;;;4928592;29;20275;-87
2021/05/28 11:39:11;;;;;;;10.70;5.70;;;20.70;99.90;;;;;;4987172;28;20225;-87
2021/05/28 11:41:53;;;;;;;6.93;5.03;;;21.20;99.90;;;;;;4987849;28;20527;-87
2021/05/28 11:44:21;;;;;;;6.75;4.80;;;21.80;99.90;;;;;;4893160;28;20273;-88
2021/05/28 11:46:50;;;;;;;6.55;4.57;;;22.10;99.90;;;;;;4984273;28;20241;-87
2021/05/28 11:49:18;;;;;;;5.95;4.22;;;22.30;99.90;;;;;;5001850;28;20218;-91
2021/05/28 11:51:46;;;;;;;6.18;4.35;;;21.70;99.90;;;;;;4980946;28;20199;-91
2021/05/28 11:54:28;;;;;;;6.80;4.53;;;22.00;99.90;;;;;;4993023;28;20319;-92
2021/05/28 11:56:59;;;;;;;6.00;3.97;;;23.00;99.90;;;;;;4993893;28;20632;-90
2021/05/28 11:59:55;;;;;;;5.43;4.23;;;23.40;99.90;;;;;;4984011;28;20446;-91
2021/05/28 12:02:39;;;;;;;5.87;3.97;;;24.10;99.90;;;;;;4981378;28;20481;-91
2021/05/28 12:05:13;;;;;;;5.60;4.10;;;24.70;99.90;;;;;;4985048;28;20529;-91
2021/05/28 12:07:40;;;;;;;6.70;4.20;;;25.00;99.90;;;;;;4992983;28;20444;-91
2021/05/28 12:10:08;;;;;;;5.90;3.93;;;24.80;99.90;;;;;;4993329;28;20941;-91
2021/05/28 12:12:51;;;;;;;6.90;5.00;;;24.30;99.90;;;;;;4989139;28;20449;-90
2021/05/28 12:15:20;;;;;;;6.57;4.97;;;24.70;99.90;;;;;;4986049;28;20438;-90
2021/05/28 12:17:47;;;;;;;8.33;4.27;;;24.40;99.90;;;;;;4991897;28;20569;-92
2021/05/28 12:20:18;;;;;;;4.37;3.83;;;24.00;99.90;;;;;;4982424;28;20934;-91
2021/05/28 12:23:10;;;;;;;4.50;3.67;;;23.90;99.90;;;;;;4980620;28;20429;-91
2021/05/28 12:25:40;;;;;;;7.43;4.73;;;24.70;99.90;;;;;;4976861;28;20833;-91
2021/05/28 12:28:25;;;;;;;6.90;5.13;;;25.20;99.90;;;;;;4991326;28;20451;-89
2021/05/28 12:31:01;;;;;;;5.93;4.47;;;25.50;99.90;;;;;;4993983;28;20949;-91
2021/05/28 12:33:30;;;;;;;5.87;4.87;;;26.20;99.90;;;;;;4978939;28;20498;-90
2021/05/28 12:35:58;;;;;;;6.20;5.30;;;26.80;99.90;;;;;;4966834;28;20449;-90
2021/05/28 12:38:32;;;;;;;10.50;7.43;;;27.30;99.90;;;;;;4982814;28;20487;-91
2021/05/28 12:41:00;;;;;;;5.60;4.67;;;27.70;99.90;;;;;;4996463;28;20433;-94
2021/05/28 12:43:28;;;;;;;16.53;5.63;;;27.90;99.90;;;;;;4988901;28;20549;-90
2021/05/28 12:45:57;;;;;;;9.20;4.93;;;28.30;99.90;;;;;;4994156;28;20438;-92